sensor_id;sensor_type;location;lat;lon;timestamp;P1;durP1;ratioP1;P2;durP2;ratioP2
12076;SDS011;12420;42.676;23.262;2023-08-30T00:02:16;7.27;;;5.93;;
12076;SDS011;12420;42.676;23.262;2023-08-30T00:04:46;6.77;;;5.70;;
12076;SDS011;12420;42.676;23.262;2023-08-30T00:07:16;9.60;;;6.03;;
12076;SDS011;12420;42.676;23.262;2023-08-30T00:09:44;8.07;;;5.87;;
12076;SDS011;12420;42.676;23.262;2023-08-30T00:12:12;6.17;;;5.57;;
12076;SDS011;12420;42.676;23.262;2023-08-30T00:14:39;6.40;;;5.80;;
12076;SDS011;12420;42.676;23.262;2023-08-30T00:17:08;7.30;;;5.13;;
12076;SDS011;12420;42.676;23.262;2023-08-30T00:19:35;7.67;;;5.77;;
12076;SDS011;12420;42.676;23.262;2023-08-30T00:22:03;6.37;;;5.73;;
12076;SDS011;12420;42.676;23.262;2023-08-30T00:24:32;6.30;;;5.30;;
12076;SDS011;12420;42.676;23.262;2023-08-30T00:27:00;6.27;;;5.67;;
12076;SDS011;12420;42.676;23.262;2023-08-30T00:29:27;6.30;;;5.00;;
12076;SDS011;12420;42.676;23.262;2023-08-30T00:31:54;8.90;;;5.60;;
12076;SDS011;12420;42.676;23.262;2023-08-30T00:34:23;8.63;;;5.40;;
12076;SDS011;12420;42.676;23.262;2023-08-30T00:36:50;7.37;;;5.63;;
12076;SDS011;12420;42.676;23.262;2023-08-30T00:39:17;8.77;;;5.40;;
12076;SDS011;12420;42.676;23.262;2023-08-30T00:41:44;7.70;;;5.13;;
12076;SDS011;12420;42.676;23.262;2023-08-30T00:44:11;11.83;;;5.47;;
12076;SDS011;12420;42.676;23.262;2023-08-30T00:46:39;9.87;;;5.13;;
12076;SDS011;12420;42.676;23.262;2023-08-30T00:49:06;8.53;;;5.23;;
12076;SDS011;12420;42.676;23.262;2023-08-30T00:51:35;11.17;;;5.80;;
12076;SDS011;12420;42.676;23.262;2023-08-30T00:54:02;8.33;;;5.50;;
12076;SDS011;12420;42.676;23.262;2023-08-30T00:56:29;8.57;;;5.67;;
12076;SDS011;12420;42.676;23.262;2023-08-30T00:58:57;6.90;;;5.33;;
12076;SDS011;12420;42.676;23.262;2023-08-30T01:01:25;6.13;;;5.00;;
12076;SDS011;12420;42.676;23.262;2023-08-30T01:03:52;6.33;;;5.20;;
12076;SDS011;12420;42.676;23.262;2023-08-30T01:06:19;7.20;;;5.70;;
12076;SDS011;12420;42.676;23.262;2023-08-30T01:08:50;5.57;;;4.93;;
12076;SDS011;12420;42.676;23.262;2023-08-30T01:11:21;8.13;;;5.47;;
12076;SDS011;12420;42.676;23.262;2023-08-30T01:13:56;6.47;;;5.43;;
12076;SDS011;12420;42.676;23.262;2023-08-30T01:16:27;6.73;;;5.13;;
12076;SDS011;12420;42.676;23.262;2023-08-30T01:18:54;5.33;;;4.83;;
12076;SDS011;12420;42.676;23.262;2023-08-30T01:21:25;8.33;;;5.10;;
12076;SDS011;12420;42.676;23.262;2023-08-30T01:24:01;5.70;;;5.20;;
12076;SDS011;12420;42.676;23.262;2023-08-30T01:26:36;8.10;;;5.40;;
12076;SDS011;12420;42.676;23.262;2023-08-30T01:29:11;5.77;;;5.20;;
12076;SDS011;12420;42.676;23.262;2023-08-30T01:31:39;6.17;;;4.80;;
12076;SDS011;12420;42.676;23.262;2023-08-30T01:34:09;7.27;;;5.03;;
12076;SDS011;12420;42.676;23.262;2023-08-30T01:36:36;7.90;;;4.80;;
12076;SDS011;12420;42.676;23.262;2023-08-30T01:39:03;6.10;;;5.37;;
12076;SDS011;12420;42.676;23.262;2023-08-30T01:41:31;5.40;;;4.70;;
12076;SDS011;12420;42.676;23.262;2023-08-30T01:44:01;5.70;;;5.10;;
12076;SDS011;12420;42.676;23.262;2023-08-30T01:46:31;6.67;;;4.97;;
12076;SDS011;12420;42.676;23.262;2023-08-30T01:49:00;6.03;;;5.10;;
12076;SDS011;12420;42.676;23.262;2023-08-30T01:51:29;7.00;;;5.23;;
12076;SDS011;12420;42.676;23.262;2023-08-30T01:53:57;6.67;;;5.20;;
12076;SDS011;12420;42.676;23.262;2023-08-30T01:56:24;6.93;;;5.00;;
12076;SDS011;12420;42.676;23.262;2023-08-30T01:58:51;6.10;;;5.17;;
12076;SDS011;12420;42.676;23.262;2023-08-30T02:01:18;9.53;;;5.50;;
12076;SDS011;12420;42.676;23.262;2023-08-30T02:03:46;6.10;;;5.17;;
12076;SDS011;12420;42.676;23.262;2023-08-30T02:06:14;5.60;;;5.00;;
12076;SDS011;12420;42.676;23.262;2023-08-30T02:08:49;6.17;;;5.43;;
12076;SDS011;12420;42.676;23.262;2023-08-30T02:11:22;8.23;;;5.10;;
12076;SDS011;12420;42.676;23.262;2023-08-30T02:13:52;7.43;;;4.90;;
12076;SDS011;12420;42.676;23.262;2023-08-30T02:16:22;8.17;;;5.30;;
12076;SDS011;12420;42.676;23.262;2023-08-30T02:18:54;7.17;;;4.90;;
12076;SDS011;12420;42.676;23.262;2023-08-30T02:21:22;9.20;;;5.13;;
12076;SDS011;12420;42.676;23.262;2023-08-30T02:23:51;11.40;;;5.27;;
12076;SDS011;12420;42.676;23.262;2023-08-30T02:26:19;5.70;;;5.20;;
12076;SDS011;12420;42.676;23.262;2023-08-30T02:28:46;5.50;;;5.00;;
12076;SDS011;12420;42.676;23.262;2023-08-30T02:31:14;8.13;;;5.60;;
12076;SDS011;12420;42.676;23.262;2023-08-30T02:33:41;6.57;;;5.00;;
12076;SDS011;12420;42.676;23.262;2023-08-30T02:36:09;7.10;;;5.37;;
12076;SDS011;12420;42.676;23.262;2023-08-30T02:38:36;6.30;;;5.57;;
12076;SDS011;12420;42.676;23.262;2023-08-30T02:41:03;7.37;;;5.80;;
12076;SDS011;12420;42.676;23.262;2023-08-30T02:43:30;7.93;;;5.63;;
12076;SDS011;12420;42.676;23.262;2023-08-30T02:45:56;9.23;;;5.23;;
12076;SDS011;12420;42.676;23.262;2023-08-30T02:48:23;6.17;;;5.53;;
12076;SDS011;12420;42.676;23.262;2023-08-30T02:50:50;7.13;;;5.90;;
12076;SDS011;12420;42.676;23.262;2023-08-30T02:53:18;6.43;;;5.47;;
12076;SDS011;12420;42.676;23.262;2023-08-30T02:55:46;7.03;;;5.83;;
12076;SDS011;12420;42.676;23.262;2023-08-30T02:58:13;8.23;;;5.40;;
12076;SDS011;12420;42.676;23.262;2023-08-30T03:00:40;7.80;;;5.47;;
12076;SDS011;12420;42.676;23.262;2023-08-30T03:03:07;6.80;;;5.50;;
12076;SDS011;12420;42.676;23.262;2023-08-30T03:05:34;8.37;;;5.60;;
12076;SDS011;12420;42.676;23.262;2023-08-30T03:08:01;11.27;;;5.70;;
12076;SDS011;12420;42.676;23.262;2023-08-30T03:10:29;5.63;;;5.00;;
12076;SDS011;12420;42.676;23.262;2023-08-30T03:12:57;7.63;;;4.70;;
12076;SDS011;12420;42.676;23.262;2023-08-30T03:15:24;5.77;;;4.80;;
12076;SDS011;12420;42.676;23.262;2023-08-30T03:17:51;7.77;;;5.00;;
12076;SDS011;12420;42.676;23.262;2023-08-30T03:20:18;7.40;;;5.10;;
12076;SDS011;12420;42.676;23.262;2023-08-30T03:22:46;8.17;;;4.97;;
12076;SDS011;12420;42.676;23.262;2023-08-30T03:25:13;7.00;;;4.53;;
12076;SDS011;12420;42.676;23.262;2023-08-30T03:27:46;9.60;;;4.90;;
12076;SDS011;12420;42.676;23.262;2023-08-30T03:30:14;7.00;;;4.70;;
12076;SDS011;12420;42.676;23.262;2023-08-30T03:32:55;6.60;;;4.80;;
12076;SDS011;12420;42.676;23.262;2023-08-30T03:35:22;8.83;;;4.80;;
12076;SDS011;12420;42.676;23.262;2023-08-30T03:37:49;7.37;;;4.50;;
12076;SDS011;12420;42.676;23.262;2023-08-30T03:40:16;8.03;;;4.67;;
12076;SDS011;12420;42.676;23.262;2023-08-30T03:42:43;7.83;;;4.80;;
12076;SDS011;12420;42.676;23.262;2023-08-30T03:45:13;8.83;;;4.70;;
12076;SDS011;12420;42.676;23.262;2023-08-30T03:47:40;9.83;;;4.50;;
12076;SDS011;12420;42.676;23.262;2023-08-30T03:50:08;6.60;;;4.57;;
12076;SDS011;12420;42.676;23.262;2023-08-30T03:52:35;5.90;;;4.53;;
12076;SDS011;12420;42.676;23.262;2023-08-30T03:55:02;9.00;;;4.97;;
12076;SDS011;12420;42.676;23.262;2023-08-30T03:57:29;7.33;;;4.73;;
12076;SDS011;12420;42.676;23.262;2023-08-30T03:59:56;9.03;;;4.63;;
12076;SDS011;12420;42.676;23.262;2023-08-30T04:02:26;10.00;;;4.90;;
12076;SDS011;12420;42.676;23.262;2023-08-30T04:04:53;9.03;;;4.60;;
12076;SDS011;12420;42.676;23.262;2023-08-30T04:07:20;6.87;;;4.80;;
12076;SDS011;12420;42.676;23.262;2023-08-30T04:09:47;10.73;;;4.80;;
12076;SDS011;12420;42.676;23.262;2023-08-30T04:12:15;13.93;;;4.90;;
12076;SDS011;12420;42.676;23.262;2023-08-30T04:14:42;10.20;;;4.63;;
12076;SDS011;12420;42.676;23.262;2023-08-30T04:17:09;11.93;;;4.70;;
12076;SDS011;12420;42.676;23.262;2023-08-30T04:19:39;9.57;;;4.90;;
12076;SDS011;12420;42.676;23.262;2023-08-30T04:22:10;9.23;;;4.40;;
12076;SDS011;12420;42.676;23.262;2023-08-30T04:24:40;9.90;;;6.07;;
12076;SDS011;12420;42.676;23.262;2023-08-30T04:27:10;8.87;;;4.90;;
12076;SDS011;12420;42.676;23.262;2023-08-30T04:29:40;11.83;;;4.40;;
12076;SDS011;12420;42.676;23.262;2023-08-30T04:32:10;8.13;;;4.53;;
12076;SDS011;12420;42.676;23.262;2023-08-30T04:34:38;7.97;;;4.20;;
12076;SDS011;12420;42.676;23.262;2023-08-30T04:37:08;10.77;;;4.03;;
12076;SDS011;12420;42.676;23.262;2023-08-30T04:39:35;5.67;;;3.63;;
12076;SDS011;12420;42.676;23.262;2023-08-30T04:42:02;7.63;;;3.73;;
12076;SDS011;12420;42.676;23.262;2023-08-30T04:44:34;5.67;;;3.70;;
12076;SDS011;12420;42.676;23.262;2023-08-30T04:47:20;5.93;;;3.40;;
12076;SDS011;12420;42.676;23.262;2023-08-30T04:49:51;6.53;;;3.90;;
12076;SDS011;12420;42.676;23.262;2023-08-30T04:52:18;6.27;;;3.60;;
12076;SDS011;12420;42.676;23.262;2023-08-30T04:54:45;5.20;;;3.30;;
12076;SDS011;12420;42.676;23.262;2023-08-30T04:57:15;6.27;;;3.97;;
12076;SDS011;12420;42.676;23.262;2023-08-30T04:59:43;6.37;;;3.20;;
12076;SDS011;12420;42.676;23.262;2023-08-30T05:02:10;6.70;;;3.30;;
12076;SDS011;12420;42.676;23.262;2023-08-30T05:04:38;7.70;;;3.73;;
12076;SDS011;12420;42.676;23.262;2023-08-30T05:07:09;8.53;;;3.47;;
12076;SDS011;12420;42.676;23.262;2023-08-30T05:09:40;7.27;;;3.97;;
12076;SDS011;12420;42.676;23.262;2023-08-30T05:12:08;5.33;;;3.30;;
12076;SDS011;12420;42.676;23.262;2023-08-30T05:14:36;5.57;;;3.60;;
12076;SDS011;12420;42.676;23.262;2023-08-30T05:17:06;5.53;;;3.40;;
12076;SDS011;12420;42.676;23.262;2023-08-30T05:19:34;7.17;;;3.20;;
12076;SDS011;12420;42.676;23.262;2023-08-30T05:22:05;9.87;;;3.50;;
12076;SDS011;12420;42.676;23.262;2023-08-30T05:24:35;5.67;;;3.50;;
12076;SDS011;12420;42.676;23.262;2023-08-30T05:27:04;6.20;;;3.93;;
12076;SDS011;12420;42.676;23.262;2023-08-30T05:29:32;4.37;;;3.90;;
12076;SDS011;12420;42.676;23.262;2023-08-30T05:32:01;5.07;;;3.60;;
12076;SDS011;12420;42.676;23.262;2023-08-30T05:34:44;8.27;;;3.87;;
12076;SDS011;12420;42.676;23.262;2023-08-30T05:37:33;7.13;;;4.50;;
12076;SDS011;12420;42.676;23.262;2023-08-30T05:40:02;4.63;;;3.00;;
12076;SDS011;12420;42.676;23.262;2023-08-30T05:42:42;6.53;;;3.17;;
12076;SDS011;12420;42.676;23.262;2023-08-30T05:45:13;8.53;;;3.67;;
12076;SDS011;12420;42.676;23.262;2023-08-30T05:47:41;4.60;;;3.60;;
12076;SDS011;12420;42.676;23.262;2023-08-30T05:50:15;9.17;;;3.60;;
12076;SDS011;12420;42.676;23.262;2023-08-30T05:52:42;7.80;;;4.13;;
12076;SDS011;12420;42.676;23.262;2023-08-30T05:55:13;7.23;;;3.50;;
12076;SDS011;12420;42.676;23.262;2023-08-30T05:57:40;5.53;;;3.53;;
12076;SDS011;12420;42.676;23.262;2023-08-30T06:00:11;4.70;;;3.13;;
12076;SDS011;12420;42.676;23.262;2023-08-30T06:03:03;4.03;;;3.20;;
12076;SDS011;12420;42.676;23.262;2023-08-30T06:05:33;5.93;;;3.37;;
12076;SDS011;12420;42.676;23.262;2023-08-30T06:08:01;4.60;;;3.20;;
12076;SDS011;12420;42.676;23.262;2023-08-30T06:10:29;4.90;;;3.10;;
12076;SDS011;12420;42.676;23.262;2023-08-30T06:12:56;7.20;;;3.80;;
12076;SDS011;12420;42.676;23.262;2023-08-30T06:15:28;5.33;;;3.20;;
12076;SDS011;12420;42.676;23.262;2023-08-30T06:17:55;4.07;;;3.03;;
12076;SDS011;12420;42.676;23.262;2023-08-30T06:20:23;4.27;;;3.53;;
12076;SDS011;12420;42.676;23.262;2023-08-30T06:22:50;4.83;;;3.43;;
12076;SDS011;12420;42.676;23.262;2023-08-30T06:25:17;3.60;;;3.30;;
12076;SDS011;12420;42.676;23.262;2023-08-30T06:27:54;4.47;;;3.37;;
12076;SDS011;12420;42.676;23.262;2023-08-30T06:30:22;5.17;;;3.30;;
12076;SDS011;12420;42.676;23.262;2023-08-30T06:32:50;5.03;;;3.17;;
12076;SDS011;12420;42.676;23.262;2023-08-30T06:35:17;4.07;;;3.60;;
12076;SDS011;12420;42.676;23.262;2023-08-30T06:37:44;7.63;;;3.27;;
12076;SDS011;12420;42.676;23.262;2023-08-30T06:40:11;6.47;;;3.33;;
12076;SDS011;12420;42.676;23.262;2023-08-30T06:42:38;4.07;;;3.20;;
12076;SDS011;12420;42.676;23.262;2023-08-30T06:48:09;3.78;;;3.25;;
12076;SDS011;12420;42.676;23.262;2023-08-30T06:50:37;6.77;;;3.63;;
12076;SDS011;12420;42.676;23.262;2023-08-30T06:53:05;3.93;;;3.50;;
12076;SDS011;12420;42.676;23.262;2023-08-30T06:55:32;6.10;;;3.37;;
12076;SDS011;12420;42.676;23.262;2023-08-30T06:58:01;3.80;;;3.50;;
12076;SDS011;12420;42.676;23.262;2023-08-30T07:00:30;4.70;;;3.53;;
12076;SDS011;12420;42.676;23.262;2023-08-30T07:03:01;4.37;;;3.23;;
12076;SDS011;12420;42.676;23.262;2023-08-30T07:05:31;7.17;;;3.47;;
12076;SDS011;12420;42.676;23.262;2023-08-30T07:07:58;4.30;;;3.60;;
12076;SDS011;12420;42.676;23.262;2023-08-30T07:10:27;4.00;;;3.55;;
12076;SDS011;12420;42.676;23.262;2023-08-30T07:12:56;7.88;;;3.80;;
12076;SDS011;12420;42.676;23.262;2023-08-30T07:15:23;5.80;;;3.70;;
12076;SDS011;12420;42.676;23.262;2023-08-30T07:17:53;7.00;;;3.77;;
12076;SDS011;12420;42.676;23.262;2023-08-30T07:20:23;9.40;;;3.53;;
12076;SDS011;12420;42.676;23.262;2023-08-30T07:22:52;4.87;;;3.50;;
12076;SDS011;12420;42.676;23.262;2023-08-30T07:25:23;5.40;;;3.57;;
12076;SDS011;12420;42.676;23.262;2023-08-30T07:28:06;4.13;;;3.30;;
12076;SDS011;12420;42.676;23.262;2023-08-30T07:30:40;3.97;;;3.50;;
12076;SDS011;12420;42.676;23.262;2023-08-30T07:33:21;4.93;;;3.35;;
12076;SDS011;12420;42.676;23.262;2023-08-30T07:42:26;5.45;;;3.17;;
12076;SDS011;12420;42.676;23.262;2023-08-30T07:44:53;4.27;;;3.10;;
12076;SDS011;12420;42.676;23.262;2023-08-30T07:47:23;5.10;;;3.20;;
12076;SDS011;12420;42.676;23.262;2023-08-30T07:55:27;8.23;;;3.45;;
12076;SDS011;12420;42.676;23.262;2023-08-30T08:07:53;4.78;;;3.03;;
12076;SDS011;12420;42.676;23.262;2023-08-30T08:10:55;5.88;;;2.95;;
12076;SDS011;12420;42.676;23.262;2023-08-30T08:13:29;5.50;;;3.10;;
12076;SDS011;12420;42.676;23.262;2023-08-30T08:16:13;4.40;;;2.50;;
12076;SDS011;12420;42.676;23.262;2023-08-30T08:18:46;4.15;;;2.78;;
12076;SDS011;12420;42.676;23.262;2023-08-30T08:21:18;4.80;;;2.53;;
12076;SDS011;12420;42.676;23.262;2023-08-30T08:24:04;4.38;;;2.70;;
12076;SDS011;12420;42.676;23.262;2023-08-30T08:26:41;4.72;;;2.63;;
12076;SDS011;12420;42.676;23.262;2023-08-30T08:29:30;4.43;;;3.00;;
12076;SDS011;12420;42.676;23.262;2023-08-30T08:32:36;3.70;;;3.10;;
12076;SDS011;12420;42.676;23.262;2023-08-30T08:35:19;3.40;;;2.85;;
12076;SDS011;12420;42.676;23.262;2023-08-30T08:37:47;4.88;;;2.90;;
12076;SDS011;12420;42.676;23.262;2023-08-30T08:43:33;5.22;;;2.75;;
12076;SDS011;12420;42.676;23.262;2023-08-30T08:46:05;5.10;;;2.67;;
12076;SDS011;12420;42.676;23.262;2023-08-30T08:48:38;5.97;;;3.00;;
12076;SDS011;12420;42.676;23.262;2023-08-30T08:51:11;5.05;;;2.90;;
12076;SDS011;12420;42.676;23.262;2023-08-30T08:53:55;4.50;;;3.00;;
12076;SDS011;12420;42.676;23.262;2023-08-30T08:56:32;6.38;;;3.60;;
12076;SDS011;12420;42.676;23.262;2023-08-30T08:59:07;5.40;;;3.08;;
12076;SDS011;12420;42.676;23.262;2023-08-30T09:01:36;5.43;;;3.08;;
12076;SDS011;12420;42.676;23.262;2023-08-30T09:04:06;5.72;;;3.42;;
12076;SDS011;12420;42.676;23.262;2023-08-30T09:06:38;4.50;;;3.00;;
12076;SDS011;12420;42.676;23.262;2023-08-30T09:09:12;6.68;;;3.60;;
12076;SDS011;12420;42.676;23.262;2023-08-30T09:12:00;8.13;;;3.80;;
12076;SDS011;12420;42.676;23.262;2023-08-30T09:14:58;10.93;;;4.20;;
12076;SDS011;12420;42.676;23.262;2023-08-30T09:17:36;6.88;;;4.00;;
12076;SDS011;12420;42.676;23.262;2023-08-30T09:20:24;4.53;;;4.10;;
12076;SDS011;12420;42.676;23.262;2023-08-30T09:22:56;7.32;;;4.35;;
12076;SDS011;12420;42.676;23.262;2023-08-30T09:25:53;5.15;;;4.30;;
12076;SDS011;12420;42.676;23.262;2023-08-30T09:28:41;5.90;;;4.00;;
12076;SDS011;12420;42.676;23.262;2023-08-30T09:31:20;6.22;;;4.25;;
12076;SDS011;12420;42.676;23.262;2023-08-30T09:33:47;4.30;;;3.90;;
12076;SDS011;12420;42.676;23.262;2023-08-30T09:36:23;6.57;;;4.25;;
12076;SDS011;12420;42.676;23.262;2023-08-30T09:38:52;8.18;;;4.07;;
12076;SDS011;12420;42.676;23.262;2023-08-30T09:41:29;6.25;;;4.70;;
12076;SDS011;12420;42.676;23.262;2023-08-30T09:44:11;4.22;;;3.80;;
12076;SDS011;12420;42.676;23.262;2023-08-30T09:46:44;6.63;;;3.92;;
12076;SDS011;12420;42.676;23.262;2023-08-30T09:49:26;4.32;;;3.90;;
12076;SDS011;12420;42.676;23.262;2023-08-30T09:51:54;4.93;;;3.78;;
12076;SDS011;12420;42.676;23.262;2023-08-30T09:54:24;6.00;;;4.15;;
12076;SDS011;12420;42.676;23.262;2023-08-30T09:56:58;4.60;;;3.80;;
12076;SDS011;12420;42.676;23.262;2023-08-30T09:59:34;4.72;;;4.00;;
12076;SDS011;12420;42.676;23.262;2023-08-30T10:02:09;7.97;;;4.28;;
12076;SDS011;12420;42.676;23.262;2023-08-30T10:04:46;6.63;;;4.50;;
12076;SDS011;12420;42.676;23.262;2023-08-30T10:07:18;5.40;;;4.20;;
12076;SDS011;12420;42.676;23.262;2023-08-30T10:10:04;5.32;;;4.18;;
12076;SDS011;12420;42.676;23.262;2023-08-30T10:12:33;8.05;;;4.50;;
12076;SDS011;12420;42.676;23.262;2023-08-30T10:15:13;5.60;;;4.18;;
12076;SDS011;12420;42.676;23.262;2023-08-30T10:17:45;4.75;;;4.25;;
12076;SDS011;12420;42.676;23.262;2023-08-30T10:20:17;8.07;;;4.47;;
12076;SDS011;12420;42.676;23.262;2023-08-30T10:22:54;7.15;;;4.72;;
12076;SDS011;12420;42.676;23.262;2023-08-30T10:25:24;9.93;;;4.45;;
12076;SDS011;12420;42.676;23.262;2023-08-30T10:28:02;5.65;;;4.63;;
12076;SDS011;12420;42.676;23.262;2023-08-30T10:30:31;8.00;;;4.70;;
12076;SDS011;12420;42.676;23.262;2023-08-30T10:36:30;7.80;;;4.70;;
12076;SDS011;12420;42.676;23.262;2023-08-30T10:39:00;10.73;;;4.93;;
12076;SDS011;12420;42.676;23.262;2023-08-30T10:41:54;5.13;;;4.70;;
12076;SDS011;12420;42.676;23.262;2023-08-30T10:44:22;9.95;;;5.40;;
12076;SDS011;12420;42.676;23.262;2023-08-30T10:46:53;5.68;;;5.00;;
12076;SDS011;12420;42.676;23.262;2023-08-30T10:49:20;5.80;;;5.20;;
12076;SDS011;12420;42.676;23.262;2023-08-30T10:51:56;10.40;;;5.10;;
12076;SDS011;12420;42.676;23.262;2023-08-30T10:54:26;6.40;;;4.55;;
12076;SDS011;12420;42.676;23.262;2023-08-30T10:57:12;6.80;;;4.82;;
12076;SDS011;12420;42.676;23.262;2023-08-30T10:59:40;5.85;;;5.35;;
12076;SDS011;12420;42.676;23.262;2023-08-30T11:02:13;5.50;;;4.80;;
12076;SDS011;12420;42.676;23.262;2023-08-30T11:04:42;8.63;;;4.93;;
12076;SDS011;12420;42.676;23.262;2023-08-30T11:07:23;14.25;;;5.53;;
12076;SDS011;12420;42.676;23.262;2023-08-30T11:09:57;8.95;;;4.90;;
12076;SDS011;12420;42.676;23.262;2023-08-30T11:12:24;5.07;;;4.47;;
12076;SDS011;12420;42.676;23.262;2023-08-30T11:14:55;7.70;;;4.75;;
12076;SDS011;12420;42.676;23.262;2023-08-30T11:17:22;5.75;;;4.10;;
12076;SDS011;12420;42.676;23.262;2023-08-30T11:19:50;5.75;;;4.22;;
12076;SDS011;12420;42.676;23.262;2023-08-30T11:22:19;6.72;;;4.30;;
12076;SDS011;12420;42.676;23.262;2023-08-30T11:24:47;5.38;;;4.00;;
12076;SDS011;12420;42.676;23.262;2023-08-30T11:27:16;4.97;;;4.00;;
12076;SDS011;12420;42.676;23.262;2023-08-30T11:29:45;5.60;;;4.00;;
12076;SDS011;12420;42.676;23.262;2023-08-30T11:32:12;5.22;;;4.07;;
12076;SDS011;12420;42.676;23.262;2023-08-30T11:34:38;5.95;;;4.13;;
12076;SDS011;12420;42.676;23.262;2023-08-30T11:37:05;4.93;;;4.22;;
12076;SDS011;12420;42.676;23.262;2023-08-30T11:39:36;5.85;;;4.25;;
12076;SDS011;12420;42.676;23.262;2023-08-30T11:42:04;5.95;;;4.00;;
12076;SDS011;12420;42.676;23.262;2023-08-30T11:44:33;6.63;;;3.90;;
12076;SDS011;12420;42.676;23.262;2023-08-30T11:47:01;4.10;;;3.60;;
12076;SDS011;12420;42.676;23.262;2023-08-30T11:49:29;4.40;;;4.00;;
12076;SDS011;12420;42.676;23.262;2023-08-30T11:51:58;6.50;;;3.80;;
12076;SDS011;12420;42.676;23.262;2023-08-30T11:54:25;5.75;;;4.15;;
12076;SDS011;12420;42.676;23.262;2023-08-30T11:56:54;7.72;;;4.65;;
12076;SDS011;12420;42.676;23.262;2023-08-30T11:59:21;5.10;;;4.20;;
12076;SDS011;12420;42.676;23.262;2023-08-30T12:01:51;4.55;;;4.15;;
12076;SDS011;12420;42.676;23.262;2023-08-30T12:04:19;4.95;;;4.13;;
12076;SDS011;12420;42.676;23.262;2023-08-30T12:06:50;5.00;;;4.47;;
12076;SDS011;12420;42.676;23.262;2023-08-30T12:09:18;7.97;;;4.72;;
12076;SDS011;12420;42.676;23.262;2023-08-30T12:11:47;8.70;;;4.70;;
12076;SDS011;12420;42.676;23.262;2023-08-30T12:14:15;5.30;;;4.43;;
12076;SDS011;12420;42.676;23.262;2023-08-30T12:16:43;4.90;;;4.50;;
12076;SDS011;12420;42.676;23.262;2023-08-30T12:19:12;6.20;;;4.40;;
12076;SDS011;12420;42.676;23.262;2023-08-30T12:21:42;4.63;;;4.18;;
12076;SDS011;12420;42.676;23.262;2023-08-30T12:24:09;5.20;;;4.00;;
12076;SDS011;12420;42.676;23.262;2023-08-30T12:26:36;4.80;;;4.32;;
12076;SDS011;12420;42.676;23.262;2023-08-30T12:29:04;5.00;;;4.50;;
12076;SDS011;12420;42.676;23.262;2023-08-30T12:31:33;5.70;;;4.63;;
12076;SDS011;12420;42.676;23.262;2023-08-30T12:34:00;8.48;;;4.88;;
12076;SDS011;12420;42.676;23.262;2023-08-30T12:36:27;6.13;;;4.40;;
12076;SDS011;12420;42.676;23.262;2023-08-30T12:38:54;4.88;;;4.47;;
12076;SDS011;12420;42.676;23.262;2023-08-30T12:41:24;5.20;;;4.40;;
12076;SDS011;12420;42.676;23.262;2023-08-30T12:43:53;9.68;;;4.78;;
12076;SDS011;12420;42.676;23.262;2023-08-30T12:46:20;8.02;;;4.55;;
12076;SDS011;12420;42.676;23.262;2023-08-30T12:48:48;5.90;;;4.13;;
12076;SDS011;12420;42.676;23.262;2023-08-30T12:51:15;7.93;;;4.35;;
12076;SDS011;12420;42.676;23.262;2023-08-30T12:53:42;5.85;;;4.40;;
12076;SDS011;12420;42.676;23.262;2023-08-30T12:56:11;8.65;;;4.68;;
12076;SDS011;12420;42.676;23.262;2023-08-30T12:58:38;5.63;;;5.05;;
12076;SDS011;12420;42.676;23.262;2023-08-30T13:01:06;6.00;;;4.40;;
12076;SDS011;12420;42.676;23.262;2023-08-30T13:03:33;4.60;;;4.18;;
12076;SDS011;12420;42.676;23.262;2023-08-30T13:06:04;4.53;;;4.13;;
12076;SDS011;12420;42.676;23.262;2023-08-30T13:08:31;5.45;;;3.75;;
12076;SDS011;12420;42.676;23.262;2023-08-30T13:10:59;4.63;;;4.22;;
12076;SDS011;12420;42.676;23.262;2023-08-30T13:13:44;4.32;;;3.92;;
12076;SDS011;12420;42.676;23.262;2023-08-30T13:16:13;7.57;;;3.97;;
12076;SDS011;12420;42.676;23.262;2023-08-30T13:18:40;6.13;;;3.97;;
12076;SDS011;12420;42.676;23.262;2023-08-30T13:21:11;12.55;;;3.75;;
12076;SDS011;12420;42.676;23.262;2023-08-30T13:23:38;4.30;;;3.90;;
12076;SDS011;12420;42.676;23.262;2023-08-30T13:26:05;4.28;;;3.72;;
12076;SDS011;12420;42.676;23.262;2023-08-30T13:28:38;6.30;;;3.53;;
12076;SDS011;12420;42.676;23.262;2023-08-30T13:31:06;6.55;;;4.22;;
12076;SDS011;12420;42.676;23.262;2023-08-30T13:33:43;7.85;;;4.00;;
12076;SDS011;12420;42.676;23.262;2023-08-30T13:36:12;5.35;;;4.00;;
12076;SDS011;12420;42.676;23.262;2023-08-30T13:38:39;4.25;;;3.85;;
12076;SDS011;12420;42.676;23.262;2023-08-30T13:41:09;5.45;;;4.25;;
12076;SDS011;12420;42.676;23.262;2023-08-30T13:43:36;8.07;;;4.00;;
12076;SDS011;12420;42.676;23.262;2023-08-30T13:46:05;5.85;;;4.45;;
12076;SDS011;12420;42.676;23.262;2023-08-30T13:48:32;7.25;;;4.07;;
12076;SDS011;12420;42.676;23.262;2023-08-30T13:50:59;4.53;;;4.03;;
12076;SDS011;12420;42.676;23.262;2023-08-30T13:53:27;6.22;;;4.15;;
12076;SDS011;12420;42.676;23.262;2023-08-30T13:55:55;4.90;;;3.63;;
12076;SDS011;12420;42.676;23.262;2023-08-30T13:58:22;4.55;;;3.70;;
12076;SDS011;12420;42.676;23.262;2023-08-30T14:00:49;5.75;;;4.00;;
12076;SDS011;12420;42.676;23.262;2023-08-30T14:03:16;5.70;;;3.88;;
12076;SDS011;12420;42.676;23.262;2023-08-30T14:05:43;4.95;;;3.67;;
12076;SDS011;12420;42.676;23.262;2023-08-30T14:08:10;4.30;;;3.90;;
12076;SDS011;12420;42.676;23.262;2023-08-30T14:10:38;3.85;;;3.50;;
12076;SDS011;12420;42.676;23.262;2023-08-30T14:13:05;4.53;;;3.63;;
12076;SDS011;12420;42.676;23.262;2023-08-30T14:15:32;4.10;;;3.72;;
12076;SDS011;12420;42.676;23.262;2023-08-30T14:18:09;7.82;;;3.40;;
12076;SDS011;12420;42.676;23.262;2023-08-30T14:20:36;7.28;;;3.08;;
12076;SDS011;12420;42.676;23.262;2023-08-30T14:23:03;3.85;;;3.35;;
12076;SDS011;12420;42.676;23.262;2023-08-30T14:25:30;4.18;;;3.50;;
12076;SDS011;12420;42.676;23.262;2023-08-30T14:27:58;4.80;;;3.25;;
12076;SDS011;12420;42.676;23.262;2023-08-30T14:30:25;3.17;;;2.92;;
12076;SDS011;12420;42.676;23.262;2023-08-30T14:32:53;3.70;;;3.30;;
12076;SDS011;12420;42.676;23.262;2023-08-30T14:35:19;3.10;;;2.90;;
12076;SDS011;12420;42.676;23.262;2023-08-30T14:37:50;3.70;;;3.13;;
12076;SDS011;12420;42.676;23.262;2023-08-30T14:40:17;6.30;;;3.05;;
12076;SDS011;12420;42.676;23.262;2023-08-30T14:42:44;6.90;;;3.08;;
12076;SDS011;12420;42.676;23.262;2023-08-30T14:45:13;3.17;;;2.88;;
12076;SDS011;12420;42.676;23.262;2023-08-30T14:47:43;8.75;;;3.00;;
12076;SDS011;12420;42.676;23.262;2023-08-30T14:50:10;7.25;;;3.40;;
12076;SDS011;12420;42.676;23.262;2023-08-30T14:52:37;6.70;;;3.17;;
12076;SDS011;12420;42.676;23.262;2023-08-30T14:55:05;3.40;;;3.10;;
12076;SDS011;12420;42.676;23.262;2023-08-30T14:57:33;6.63;;;3.13;;
12076;SDS011;12420;42.676;23.262;2023-08-30T15:00:01;5.47;;;3.38;;
12076;SDS011;12420;42.676;23.262;2023-08-30T15:02:32;5.72;;;3.30;;
12076;SDS011;12420;42.676;23.262;2023-08-30T15:05:10;6.13;;;3.30;;
12076;SDS011;12420;42.676;23.262;2023-08-30T15:07:40;3.60;;;3.00;;
12076;SDS011;12420;42.676;23.262;2023-08-30T15:10:08;5.00;;;3.38;;
12076;SDS011;12420;42.676;23.262;2023-08-30T15:12:36;4.05;;;2.95;;
12076;SDS011;12420;42.676;23.262;2023-08-30T15:15:04;7.68;;;3.17;;
12076;SDS011;12420;42.676;23.262;2023-08-30T15:17:33;7.03;;;3.42;;
12076;SDS011;12420;42.676;23.262;2023-08-30T15:20:02;4.93;;;3.00;;
12076;SDS011;12420;42.676;23.262;2023-08-30T15:22:33;10.52;;;3.15;;
12076;SDS011;12420;42.676;23.262;2023-08-30T15:25:01;4.18;;;2.90;;